createdAt,value
2023-03-18T00:08:19.588Z,5.12
2023-03-18T00:20:19.983Z,5.00
2023-03-18T00:32:20.456Z,5.12
2023-03-18T00:44:20.965Z,5.11
2023-03-18T00:56:21.376Z,4.94
2023-03-18T01:08:21.838Z,4.83
2023-03-18T01:20:22.356Z,4.58
2023-03-18T01:32:22.873Z,4.37
2023-03-18T01:44:23.181Z,4.87
2023-03-18T01:56:26.404Z,4.65
2023-03-18T02:08:24.056Z,4.72
2023-03-18T02:20:24.959Z,4.37
2023-03-18T02:32:25.000Z,4.14
2023-03-18T02:44:25.460Z,4.07
2023-03-18T02:56:25.889Z,4.27
2023-03-18T03:08:26.357Z,4.31
2023-03-18T03:20:26.789Z,4.00
2023-03-18T03:32:27.244Z,3.40
2023-03-18T03:44:29.900Z,3.56
2023-03-18T03:56:28.181Z,4.41
2023-03-18T04:08:28.607Z,4.34
2023-03-18T04:20:31.520Z,4.50
2023-03-18T04:32:29.558Z,4.13
2023-03-18T04:44:29.949Z,4.22
2023-03-18T04:56:30.384Z,2.07
2023-03-18T05:08:30.840Z,1.47
2023-03-18T05:20:31.316Z,1.68
2023-03-18T05:32:33.501Z,1.49
2023-03-18T05:44:34.905Z,1.83
2023-03-18T05:56:32.656Z,1.25
2023-03-18T06:08:33.108Z,1.46
2023-03-18T06:20:33.603Z,1.96
2023-03-18T06:32:34.196Z,2.05
2023-03-18T06:44:34.471Z,2.54
2023-03-18T06:56:37.639Z,3.37
2023-03-18T07:08:35.394Z,4.57
2023-03-18T07:20:35.832Z,5.28
2023-03-18T07:32:36.243Z,6.15
2023-03-18T07:44:39.429Z,6.86
2023-03-18T07:56:37.590Z,7.97
2023-03-18T08:08:37.629Z,8.53
2023-03-18T08:20:38.166Z,8.68
2023-03-18T08:32:38.614Z,9.80
2023-03-18T08:44:39.035Z,10.38
2023-03-18T08:56:39.448Z,9.49
2023-03-18T09:08:39.869Z,10.58
2023-03-18T09:20:40.375Z,11.80
2023-03-18T09:32:40.870Z,12.24
2023-03-18T09:44:41.249Z,12.61
2023-03-18T09:56:41.736Z,12.36
2023-03-18T10:08:42.178Z,12.69
2023-03-18T10:20:42.601Z,12.85
2023-03-18T10:32:49.935Z,12.42
2023-03-18T10:44:43.529Z,13.95
2023-03-18T10:56:43.980Z,13.83
2023-03-18T11:08:44.465Z,13.80
2023-03-18T11:20:44.925Z,14.32
2023-03-18T11:32:45.462Z,15.41
2023-03-18T11:44:45.792Z,15.71
2023-03-18T11:56:46.250Z,16.51
2023-03-18T12:08:46.746Z,16.19
2023-03-18T12:20:47.178Z,16.24
2023-03-18T12:32:47.684Z,16.83
2023-03-18T12:44:48.077Z,16.13
2023-03-18T12:56:48.498Z,16.43
2023-03-18T13:08:48.996Z,15.75
2023-03-18T13:20:49.456Z,15.67
2023-03-18T13:32:49.945Z,16.34
2023-03-18T13:44:50.354Z,16.33
2023-03-18T13:56:50.810Z,16.51
2023-03-18T14:08:51.292Z,15.79
2023-03-18T14:20:51.758Z,15.37
2023-03-18T14:32:52.253Z,15.72
2023-03-18T14:44:52.656Z,15.86
2023-03-18T14:56:53.129Z,16.64
2023-03-18T15:08:53.591Z,15.89
2023-03-18T15:20:54.002Z,15.01
2023-03-18T15:32:54.535Z,13.83
2023-03-18T15:44:54.925Z,13.18
2023-03-18T15:56:55.458Z,13.05
2023-03-18T16:08:55.869Z,12.70
2023-03-18T16:20:56.296Z,12.36
2023-03-18T16:32:56.787Z,11.48
2023-03-18T16:44:59.489Z,10.85
2023-03-18T16:56:57.680Z,10.50
2023-03-18T17:08:58.102Z,9.91
2023-03-18T17:21:00.261Z,8.90
2023-03-18T17:32:59.100Z,8.90
2023-03-18T17:44:59.485Z,8.69
2023-03-18T17:56:59.938Z,8.21
2023-03-18T18:09:00.685Z,7.80
2023-03-18T18:21:00.845Z,7.15
2023-03-18T18:33:01.318Z,7.03
2023-03-18T18:45:01.757Z,6.71
2023-03-18T18:57:02.194Z,6.37
2023-03-18T19:09:02.675Z,6.01
2023-03-18T19:21:03.104Z,5.74
2023-03-18T19:33:03.571Z,5.60
2023-03-18T19:45:06.701Z,5.04
2023-03-18T19:57:04.470Z,4.49
2023-03-18T20:09:04.889Z,4.36
2023-03-18T20:21:05.360Z,4.31
2023-03-18T20:33:05.893Z,3.39
2023-03-18T20:45:06.297Z,3.49
2023-03-18T20:57:06.735Z,3.44
2023-03-18T21:09:07.184Z,3.08
2023-03-18T21:21:07.624Z,2.77
2023-03-18T21:33:10.834Z,3.08
2023-03-18T21:45:08.517Z,1.93
2023-03-18T21:57:08.971Z,2.12
2023-03-18T22:09:09.433Z,1.77
2023-03-18T22:21:12.632Z,1.63
2023-03-18T22:33:10.364Z,1.07
2023-03-18T22:45:12.515Z,0.78
2023-03-18T22:57:11.254Z,0.93
2023-03-18T23:09:11.722Z,1.08
2023-03-18T23:21:14.845Z,0.57
2023-03-18T23:33:12.641Z,0.21
2023-03-18T23:45:13.057Z,0.15
2023-03-18T23:57:16.219Z,-0.07
